Mastic, NY

2:43 AM EDT on May 30, 2016 (GMT -0400)
Residential higher plateau | | Change Station

Elev 69 ft 40.80 °N, 72.87 °W | Updated 6 minutes ago

Rain
Rain Mist
65.1 °F
Feels Like 65.1 °F
N
0.0
Wind Variable Wind from WSW

Today
High -- | Low -- °F
--% Chance of Precip.
Yesterday
High -- | Low -- °F
Precip. -- in
Pressure 30.04 in
Visibility 2.0 miles
Clouds Overcast 200 ft
Dew Point 64 °F
Humidity 95%
Rainfall 0.07 in
Snow Depth Not available.
5:22 AM 8:15 PM
Last Quarter, 41% visible
SPECI KHWV 300638Z AUTO 20007KT 2SM RA BR OVC002 19/18 A3004 RMK AO2 RAE12B24 P0003 T01890183 TSNO
Pressure 30.04 in
Visibility 2.0 miles
Clouds Overcast 200 ft
Dew Point 64 °F
Humidity 95%
Rainfall 0.07 in
Snow Depth Not available.
5:22 AM 8:15 PM
Last Quarter, 41% visible
SPECI KHWV 300638Z AUTO 20007KT 2SM RA BR OVC002 19/18 A3004 RMK AO2 RAE12B24 P0003 T01890183 TSNO

10-Day Weather Forecast

Almanac

Astronomy

May. 30, 2016 Rise Set
Actual Time
Civil Twilight
Nautical Twilight
Astronomical Twilight
Moon
Length of Visible Light
Length of Day
Tomorrow will be .
, % of the Moon is Illuminated

Today's Extremes

State Highs State Lows

Community

WunderPhotos

Upload Photos

1,914,612 photos uploaded!

WunderBlog® & News

Nearby

Air Quality

  Air Quality AQ Index Pollutant
Not available.

Snow Depth

Station Depth Elevation

Earthquake Activity

City Distance Mag. Time & Date
Minimum magnitude displayed is 2.5.

Coastal Water Temperatures

Place Temperature

Stations

Nearby Weather Stations

Station Location Temp. Windchill Dew Point Humidity Wind Precip. Elev Updated Type
                   

Watches & Warnings

There are currently no watches in effect.